| time (UTC) | temp F | wind direction | speed MPH | gust MPH | rain 1hr in | rain 24hr in | rain mn in | humidity % | barometer mb |
| 20260510091135 | 60 | 178 | 0.0 | 0.0 | 0.00 | 0.01 | 0.00 | 82 | 1007.7 |
| 20260510090632 | 60 | 178 | 0.0 | 0.0 | 0.00 | 0.01 | 0.00 | 81 | 1007.6 |
| 20260510090133 | 60 | 178 | 0.0 | 0.0 | 0.00 | 0.01 | 0.00 | 81 | 1007.6 |
| 20260510085633 | 61 | 178 | 0.0 | 0.0 | 0.00 | 0.01 | 0.00 | 80 | 1007.4 |
| 20260510085132 | 61 | 178 | 0.0 | 0.0 | 0.00 | 0.01 | 0.00 | 79 | 1007.2 |
| 20260510084632 | 61 | 178 | 0.0 | 0.0 | 0.00 | 0.01 | 0.00 | 79 | 1006.9 |
| 20260510084355 | 62 | 178 | 0.0 | 0.0 | 0.00 | 0.01 | 0.00 | 78 | 1006.8 |
| 20260510083632 | 62 | 178 | 0.0 | 0.0 | 0.00 | 0.01 | 0.00 | 78 | 1006.9 |
| 20260510083131 | 62 | 178 | 0.0 | 0.0 | 0.00 | 0.01 | 0.00 | 78 | 1006.8 |
| 20260510082625 | 62 | 178 | 0.0 | 0.0 | 0.00 | 0.01 | 0.00 | 77 | 1006.7 |
| 20260510082119 | 62 | 178 | 0.0 | 0.0 | 0.00 | 0.01 | 0.00 | 76 | 1006.8 |
| 20260510081612 | 63 | 178 | 0.0 | 0.0 | 0.00 | 0.01 | 0.00 | 75 | 1006.7 |
| 20260510081113 | 63 | 178 | 0.0 | 0.0 | 0.00 | 0.01 | 0.00 | 75 | 1006.6 |
| 20260510080613 | 63 | 178 | 0.0 | 0.0 | 0.00 | 0.01 | 0.00 | 74 | 1006.5 |
| 20260510080113 | 64 | 178 | 0.0 | 0.0 | 0.00 | 0.01 | 0.00 | 74 | 1006.3 |
| 20260510075613 | 64 | 178 | 0.0 | 0.0 | 0.00 | 0.01 | 0.00 | 73 | 1006.3 |
| 20260510075113 | 64 | 178 | 0.0 | 0.0 | 0.00 | 0.01 | 0.00 | 73 | 1006.4 |
| 20260510074613 | 64 | 178 | 0.0 | 0.0 | 0.00 | 0.01 | 0.00 | 73 | 1006.3 |
| 20260510074112 | 65 | 178 | 0.0 | 0.0 | 0.00 | 0.01 | 0.00 | 71 | 1006.2 |
| 20260510073613 | 65 | 178 | 0.0 | 0.0 | 0.00 | 0.01 | 0.00 | 70 | 1006.1 |
| 20260510073112 | 65 | 178 | 0.0 | 0.0 | 0.00 | 0.01 | 0.00 | 69 | 1006.2 |
| 20260510072613 | 66 | 178 | 0.0 | 0.0 | 0.00 | 0.01 | 0.00 | 68 | 1006.2 |
| 20260510072113 | 66 | 178 | 0.0 | 0.0 | 0.00 | 0.01 | 0.00 | 67 | 1006.0 |
| 20260510071611 | 66 | 178 | 0.0 | 0.0 | 0.00 | 0.01 | 0.00 | 67 | 1006.0 |
| 20260510071111 | 66 | 178 | 0.0 | 0.0 | 0.00 | 0.01 | 0.00 | 66 | 1006.1 |
| 20260510070609 | 66 | 178 | 0.0 | 0.0 | 0.00 | 0.01 | 0.00 | 66 | 1006.0 |
| 20260510070109 | 67 | 178 | 0.0 | 0.0 | 0.00 | 0.01 | 0.00 | 65 | 1005.9 |
| 20260510065609 | 67 | 178 | 0.0 | 0.0 | 0.00 | 0.01 | 0.00 | 64 | 1005.8 |
| 20260510065552 | 67 | 178 | 0.0 | 0.0 | 0.00 | 0.01 | 0.00 | 64 | 1005.8 |
| 20260510064607 | 67 | 178 | 0.0 | 0.0 | 0.00 | 0.01 | 0.00 | 64 | 1006.0 |
| 20260510064107 | 68 | 178 | 0.0 | 0.0 | 0.00 | 0.01 | 0.00 | 63 | 1006.0 |
| 20260510064051 | 68 | 178 | 0.0 | 0.0 | 0.00 | 0.01 | 0.00 | 63 | 1005.9 |
| 20260510063107 | 68 | 178 | 0.0 | 0.0 | 0.00 | 0.01 | 0.00 | 62 | 1006.2 |
| 20260510062606 | 68 | 178 | 0.0 | 0.0 | 0.00 | 0.01 | 0.00 | 61 | 1006.1 |
| 20260510062333 | 68 | 178 | 0.0 | 0.0 | 0.00 | 0.01 | 0.00 | 61 | 1006.0 |
| 20260510061606 | 69 | 178 | 0.0 | 0.0 | 0.00 | 0.01 | 0.00 | 61 | 1006.2 |
| 20260510061107 | 69 | 178 | 0.0 | 0.0 | 0.00 | 0.01 | 0.00 | 60 | 1006.2 |
| 20260510060607 | 69 | 178 | 0.0 | 0.0 | 0.00 | 0.01 | 0.00 | 60 | 1006.2 |
| 20260510060105 | 69 | 178 | 0.0 | 0.0 | 0.00 | 0.01 | 0.00 | 58 | 1006.0 |
| 20260510055604 | 70 | 178 | 0.0 | 0.0 | 0.00 | 0.01 | 0.00 | 58 | 1005.8 |
| 20260510055104 | 70 | 178 | 0.0 | 0.0 | 0.00 | 0.01 | 0.00 | 57 | 1005.6 |
| 20260510054604 | 71 | 178 | 0.0 | 0.0 | 0.00 | 0.01 | 0.00 | 55 | 1005.7 |
| 20260510054105 | 71 | 178 | 0.0 | 1.0 | 0.00 | 0.01 | 0.00 | 55 | 1005.8 |
| 20260510053603 | 71 | 178 | 0.0 | 2.0 | 0.00 | 0.01 | 0.00 | 54 | 1005.8 |
| 20260510053104 | 71 | 178 | 1.0 | 4.0 | 0.00 | 0.01 | 0.00 | 54 | 1005.8 |
| 20260510052604 | 70 | 177 | 1.0 | 7.0 | 0.00 | 0.01 | 0.00 | 56 | 1005.8 |
| 20260510052104 | 69 | 177 | 1.0 | 9.0 | 0.00 | 0.01 | 0.00 | 57 | 1005.8 |
| 20260510051603 | 69 | 174 | 0.0 | 9.0 | 0.00 | 0.01 | 0.00 | 59 | 1006.1 |
| 20260510051104 | 67 | 175 | 0.0 | 2.0 | 0.00 | 0.01 | 0.00 | 62 | 1006.6 |
| 20260510050603 | 66 | 173 | 0.0 | 0.0 | 0.00 | 0.01 | 0.00 | 66 | 1007.2 |
| 20260510050111 | 66 | 173 | 0.0 | 0.0 | 0.00 | 0.01 | 0.00 | 67 | 1007.5 |
| 20260510045604 | 66 | 173 | 0.0 | 0.0 | 0.00 | 0.01 | 0.01 | 69 | 1007.8 |
| 20260510045107 | 65 | 173 | 0.0 | 0.0 | 0.00 | 0.01 | 0.01 | 69 | 1007.9 |
| 20260510044619 | 65 | 173 | 0.0 | 0.0 | 0.00 | 0.01 | 0.01 | 70 | 1007.9 |
| 20260510044109 | 65 | 173 | 0.0 | 0.0 | 0.00 | 0.01 | 0.01 | 70 | 1007.9 |
| 20260510043608 | 66 | 173 | 0.0 | 0.0 | 0.00 | 0.01 | 0.01 | 70 | 1007.8 |
| 20260510043108 | 66 | 173 | 0.0 | 0.0 | 0.00 | 0.01 | 0.01 | 69 | 1007.7 |
| 20260510042609 | 65 | 173 | 0.0 | 0.0 | 0.00 | 0.01 | 0.01 | 69 | 1007.5 |
| 20260510042109 | 65 | 173 | 0.0 | 0.0 | 0.00 | 0.01 | 0.01 | 69 | 1007.5 |
| 20260510041608 | 65 | 173 | 0.0 | 0.0 | 0.00 | 0.01 | 0.01 | 70 | 1007.5 |
| 20260510041114 | 65 | 173 | 0.0 | 0.0 | 0.00 | 0.01 | 0.01 | 70 | 1007.6 |
| 20260510040605 | 65 | 173 | 0.0 | 0.0 | 0.00 | 0.01 | 0.01 | 70 | 1007.6 |
| 20260510040104 | 65 | 173 | 0.0 | 0.0 | 0.00 | 0.01 | 0.01 | 70 | 1007.6 |
| 20260510040057 | 65 | 173 | 0.0 | 0.0 | 0.00 | 0.01 | 0.01 | 70 | 1007.5 |
| 20260510035104 | 65 | 173 | 0.0 | 0.0 | 0.00 | 0.01 | 0.01 | 71 | 1007.5 |
| 20260510034605 | 65 | 173 | 0.0 | 0.0 | 0.00 | 0.01 | 0.01 | 71 | 1007.4 |
| 20260510034104 | 65 | 173 | 0.0 | 0.0 | 0.00 | 0.01 | 0.01 | 71 | 1007.2 |
| 20260510033606 | 65 | 173 | 0.0 | 0.0 | 0.00 | 0.01 | 0.01 | 71 | 1007.0 |
| 20260510033106 | 64 | 173 | 0.0 | 0.0 | 0.00 | 0.01 | 0.01 | 71 | 1006.9 |
| 20260510032604 | 64 | 173 | 0.0 | 0.0 | 0.00 | 0.01 | 0.01 | 71 | 1006.8 |
| 20260510032105 | 64 | 173 | 0.0 | 0.0 | 0.00 | 0.01 | 0.01 | 70 | 1006.7 |
| 20260510031556 | 64 | 173 | 0.0 | 0.0 | 0.00 | 0.01 | 0.01 | 69 | 1006.5 |
| 20260510031319 | 64 | 173 | 0.0 | 0.0 | 0.00 | 0.01 | 0.01 | 69 | 1006.4 |
| 20260510030544 | 64 | 173 | 0.0 | 0.0 | 0.00 | 0.01 | 0.01 | 68 | 1006.2 |
| 20260510030037 | 64 | 173 | 0.0 | 0.0 | 0.00 | 0.01 | 0.01 | 67 | 1006.1 |
| 20260510025538 | 65 | 173 | 0.0 | 0.0 | 0.00 | 0.01 | 0.01 | 66 | 1006.1 |
| 20260510025036 | 65 | 173 | 0.0 | 0.0 | 0.00 | 0.01 | 0.01 | 66 | 1006.0 |
| 20260510024535 | 65 | 173 | 0.0 | 0.0 | 0.00 | 0.01 | 0.01 | 65 | 1005.9 |
| 20260510024513 | 65 | 173 | 0.0 | 0.0 | 0.00 | 0.01 | 0.01 | 64 | 1005.8 |
| 20260510023532 | 66 | 173 | 0.0 | 0.0 | 0.00 | 0.01 | 0.01 | 63 | 1005.6 |
| 20260510023257 | 66 | 173 | 0.0 | 0.0 | 0.00 | 0.01 | 0.01 | 62 | 1005.5 |
| 20260510022754 | 66 | 173 | 0.0 | 0.0 | 0.00 | 0.01 | 0.01 | 60 | 1005.3 |
| 20260510022032 | 67 | 173 | 0.0 | 0.0 | 0.00 | 0.01 | 0.01 | 60 | 1005.3 |
| 20260510021533 | 67 | 173 | 0.0 | 0.0 | 0.00 | 0.01 | 0.01 | 58 | 1005.2 |
| 20260510021031 | 68 | 173 | 0.0 | 0.0 | 0.00 | 0.01 | 0.01 | 57 | 1005.2 |
| 20260510020532 | 68 | 173 | 0.0 | 0.0 | 0.00 | 0.01 | 0.01 | 56 | 1005.1 |
| 20260510020256 | 69 | 173 | 0.0 | 0.0 | 0.00 | 0.01 | 0.01 | 54 | 1005.1 |
| 20260510015532 | 69 | 173 | 0.0 | 0.0 | 0.00 | 0.01 | 0.01 | 53 | 1004.9 |
| 20260510015259 | 70 | 173 | 0.0 | 0.0 | 0.00 | 0.01 | 0.01 | 52 | 1004.8 |
| 20260510014532 | 71 | 173 | 0.0 | 0.0 | 0.00 | 0.01 | 0.01 | 51 | 1004.8 |
| 20260510014031 | 71 | 173 | 0.0 | 0.0 | 0.00 | 0.01 | 0.01 | 50 | 1004.6 |
| 20260510013532 | 72 | 173 | 0.0 | 0.0 | 0.00 | 0.01 | 0.01 | 48 | 1004.4 |
| 20260510013032 | 73 | 173 | 0.0 | 0.0 | 0.00 | 0.01 | 0.01 | 47 | 1004.3 |
| 20260510012749 | 74 | 173 | 0.0 | 0.0 | 0.00 | 0.01 | 0.01 | 45 | 1004.2 |
| 20260510012244 | 74 | 173 | 0.0 | 0.0 | 0.00 | 0.01 | 0.01 | 44 | 1004.2 |
| 20260510011514 | 75 | 173 | 0.0 | 0.0 | 0.00 | 0.01 | 0.01 | 42 | 1004.1 |
| 20260510011233 | 76 | 173 | 0.0 | 0.0 | 0.00 | 0.01 | 0.01 | 42 | 1003.9 |
| 20260510010507 | 77 | 173 | 0.0 | 0.0 | 0.00 | 0.01 | 0.01 | 40 | 1003.9 |
| 20260510010007 | 77 | 173 | 0.0 | 0.0 | 0.00 | 0.01 | 0.01 | 39 | 1003.8 |
| 20260510005507 | 78 | 173 | 0.0 | 0.0 | 0.00 | 0.01 | 0.01 | 38 | 1003.7 |
| 20260510005008 | 78 | 173 | 0.0 | 1.0 | 0.00 | 0.01 | 0.01 | 38 | 1003.6 |
| 20260510004508 | 78 | 173 | 0.0 | 1.0 | 0.00 | 0.01 | 0.01 | 37 | 1003.5 |
| 20260510004013 | 79 | 173 | 0.0 | 0.0 | 0.00 | 0.01 | 0.01 | 37 | 1003.4 |
| 20260510003729 | 79 | 173 | 0.0 | 0.0 | 0.00 | 0.01 | 0.01 | 36 | 1003.5 |
| 20260510003005 | 79 | 173 | 0.0 | 1.0 | 0.00 | 0.01 | 0.01 | 36 | 1003.4 |
| 20260510002504 | 80 | 173 | 0.0 | 1.0 | 0.00 | 0.01 | 0.01 | 35 | 1003.3 |
| 20260510002004 | 80 | 173 | 0.0 | 0.0 | 0.00 | 0.01 | 0.01 | 34 | 1003.3 |
| 20260510001505 | 80 | 173 | 0.0 | 1.0 | 0.00 | 0.01 | 0.01 | 33 | 1003.2 |
| 20260510001009 | 81 | 173 | 0.0 | 2.0 | 0.00 | 0.01 | 0.01 | 32 | 1003.1 |
| 20260510000505 | 81 | 173 | 0.0 | 3.0 | 0.00 | 0.01 | 0.01 | 32 | 1003.1 |
| 20260510000223 | 81 | 175 | 0.0 | 3.0 | 0.00 | 0.01 | 0.01 | 30 | 1003.2 |
| 20260509235505 | 81 | 175 | 0.0 | 1.0 | 0.00 | 0.01 | 0.01 | 30 | 1003.2 |
| 20260509235005 | 81 | 175 | 0.0 | 7.0 | 0.00 | 0.01 | 0.01 | 29 | 1003.3 |
| 20260509234732 | 81 | 175 | 0.0 | 7.0 | 0.00 | 0.01 | 0.01 | 29 | 1003.3 |
| 20260509234004 | 81 | 173 | 0.0 | 3.0 | 0.00 | 0.01 | 0.01 | 28 | 1003.3 |
| 20260509233504 | 82 | 174 | 0.0 | 4.0 | 0.00 | 0.01 | 0.01 | 29 | 1003.3 |
| 20260509233004 | 82 | 175 | 0.0 | 4.0 | 0.00 | 0.01 | 0.01 | 30 | 1003.4 |
| 20260509232505 | 81 | 174 | 0.0 | 4.0 | 0.00 | 0.01 | 0.01 | 30 | 1003.3 |
| 20260509232004 | 82 | 177 | 0.0 | 3.0 | 0.00 | 0.01 | 0.01 | 32 | 1003.3 |
| 20260509231726 | 82 | 178 | 1.0 | 7.0 | 0.00 | 0.01 | 0.01 | 33 | 1003.4 |
| 20260509231004 | 82 | 180 | 0.0 | 7.0 | 0.00 | 0.01 | 0.01 | 32 | 1003.4 |
| 20260509230507 | 82 | 172 | 0.0 | 6.0 | 0.00 | 0.01 | 0.01 | 33 | 1003.4 |
| 20260509230004 | 82 | 171 | 0.0 | 6.0 | 0.00 | 0.01 | 0.01 | 34 | 1003.4 |
| 20260509225502 | 82 | 176 | 1.0 | 8.0 | 0.00 | 0.01 | 0.01 | 36 | 1003.3 |
| 20260509225002 | 82 | 178 | 0.0 | 8.0 | 0.00 | 0.01 | 0.01 | 35 | 1003.3 |
| 20260509224502 | 83 | 169 | 0.0 | 4.0 | 0.00 | 0.01 | 0.01 | 35 | 1003.4 |
| 20260509224003 | 83 | 169 | 0.0 | 5.0 | 0.00 | 0.01 | 0.01 | 35 | 1003.4 |
| 20260509223502 | 83 | 169 | 0.0 | 5.0 | 0.00 | 0.01 | 0.01 | 35 | 1003.4 |
| 20260509222957 | 83 | 169 | 0.0 | 4.0 | 0.00 | 0.01 | 0.01 | 34 | 1003.4 |
| 20260509222456 | 83 | 171 | 0.0 | 4.0 | 0.00 | 0.01 | 0.01 | 33 | 1003.4 |
| 20260509221950 | 83 | 171 | 0.0 | 1.0 | 0.00 | 0.01 | 0.01 | 35 | 1003.4 |
| 20260509221453 | 83 | 171 | 0.0 | 0.0 | 0.00 | 0.01 | 0.01 | 33 | 1003.5 |
| 20260509220950 | 83 | 171 | 0.0 | 0.0 | 0.00 | 0.02 | 0.01 | 34 | 1003.4 |
| 20260509220446 | 83 | 171 | 0.0 | 1.0 | 0.00 | 0.02 | 0.01 | 35 | 1003.5 |
| 20260509215946 | 83 | 171 | 0.0 | 1.0 | 0.00 | 0.02 | 0.01 | 32 | 1003.6 |
| 20260509215447 | 83 | 168 | 0.0 | 1.0 | 0.00 | 0.03 | 0.01 | 34 | 1003.6 |
| 20260509214947 | 84 | 167 | 0.0 | 1.0 | 0.00 | 0.03 | 0.01 | 34 | 1003.6 |
| 20260509214444 | 84 | 168 | 0.0 | 1.0 | 0.00 | 0.03 | 0.01 | 36 | 1003.7 |
| 20260509213944 | 84 | 168 | 0.0 | 1.0 | 0.00 | 0.03 | 0.01 | 34 | 1003.7 |
| 20260509213444 | 84 | 168 | 0.0 | 4.0 | 0.00 | 0.03 | 0.01 | 32 | 1003.7 |
| 20260509212940 | 84 | 167 | 0.0 | 4.0 | 0.00 | 0.03 | 0.01 | 34 | 1003.7 |
| 20260509212442 | 83 | 167 | 0.0 | 5.0 | 0.00 | 0.03 | 0.01 | 34 | 1003.8 |
| 20260509211939 | 83 | 167 | 0.0 | 5.0 | 0.00 | 0.03 | 0.01 | 32 | 1003.8 |
| 20260509211440 | 83 | 170 | 0.0 | 3.0 | 0.00 | 0.03 | 0.01 | 33 | 1003.9 |
| 20260509210939 | 84 | 179 | 0.0 | 1.0 | 0.00 | 0.03 | 0.01 | 33 | 1004.0 |
| 20260509210439 | 84 | 180 | 0.0 | 0.0 | 0.00 | 0.03 | 0.01 | 34 | 1004.0 |
| 20260509205942 | 84 | 180 | 0.0 | 0.0 | 0.00 | 0.03 | 0.01 | 35 | 1004.0 |
| 20260509205708 | 83 | 180 | 0.0 | 1.0 | 0.00 | 0.04 | 0.01 | 35 | 1004.1 |
| 20260509204946 | 83 | 182 | 0.0 | 1.0 | 0.00 | 0.04 | 0.01 | 36 | 1004.1 |
| 20260509204438 | 83 | 177 | 0.0 | 0.0 | 0.00 | 0.04 | 0.01 | 30 | 1004.2 |
| 20260509203936 | 84 | 177 | 0.0 | 0.0 | 0.00 | 0.04 | 0.01 | 31 | 1004.4 |
| 20260509203440 | 84 | 177 | 0.0 | 0.0 | 0.00 | 0.04 | 0.01 | 33 | 1004.4 |
| 20260509202936 | 84 | 177 | 0.0 | 1.0 | 0.00 | 0.04 | 0.01 | 31 | 1004.4 |
| 20260509202659 | 84 | 177 | 0.0 | 1.0 | 0.00 | 0.04 | 0.01 | 31 | 1004.5 |
| 20260509202414 | 83 | 177 | 0.0 | 0.0 | 0.00 | 0.04 | 0.01 | 33 | 1004.6 |
| 20260509201436 | 84 | 177 | 0.0 | 1.0 | 0.00 | 0.04 | 0.01 | 32 | 1004.5 |
| 20260509200934 | 84 | 177 | 0.0 | 1.0 | 0.00 | 0.04 | 0.01 | 35 | 1004.6 |
| 20260509200432 | 83 | 177 | 0.0 | 1.0 | 0.00 | 0.04 | 0.01 | 35 | 1004.6 |
| 20260509195932 | 83 | 178 | 0.0 | 1.0 | 0.00 | 0.04 | 0.01 | 35 | 1004.7 |
| 20260509195432 | 84 | 187 | 0.0 | 4.0 | 0.00 | 0.04 | 0.01 | 36 | 1004.7 |
| 20260509194934 | 84 | 188 | 0.0 | 4.0 | 0.00 | 0.04 | 0.01 | 36 | 1004.8 |
| 20260509194431 | 84 | 189 | 0.0 | 3.0 | 0.00 | 0.04 | 0.01 | 35 | 1004.9 |
| 20260509193933 | 83 | 190 | 0.0 | 3.0 | 0.00 | 0.04 | 0.01 | 34 | 1004.9 |
| 20260509193434 | 83 | 189 | 0.0 | 3.0 | 0.00 | 0.04 | 0.01 | 34 | 1004.9 |
| 20260509192932 | 83 | 189 | 0.0 | 3.0 | 0.00 | 0.04 | 0.01 | 34 | 1004.9 |
| 20260509192438 | 83 | 186 | 0.0 | 1.0 | 0.00 | 0.04 | 0.01 | 34 | 1004.9 |
| 20260509192155 | 83 | 186 | 0.0 | 1.0 | 0.00 | 0.04 | 0.01 | 41 | 1005.0 |
| 20260509191433 | 83 | 186 | 0.0 | 1.0 | 0.00 | 0.04 | 0.01 | 41 | 1005.0 |
| 20260509190931 | 82 | 184 | 0.0 | 3.0 | 0.00 | 0.04 | 0.01 | 41 | 1005.0 |
| 20260509190426 | 82 | 184 | 0.0 | 3.0 | 0.00 | 0.04 | 0.01 | 42 | 1005.0 |
| 20260509185921 | 82 | 182 | 0.0 | 1.0 | 0.00 | 0.04 | 0.01 | 41 | 1005.1 |
| 20260509185413 | 82 | 182 | 0.0 | 1.0 | 0.00 | 0.04 | 0.01 | 42 | 1005.1 |
| 20260509184906 | 82 | 182 | 0.0 | 3.0 | 0.00 | 0.04 | 0.01 | 40 | 1005.2 |
| 20260509184408 | 82 | 182 | 0.0 | 3.0 | 0.00 | 0.04 | 0.01 | 42 | 1005.2 |
| 20260509183918 | 82 | 186 | 0.0 | 0.0 | 0.00 | 0.04 | 0.01 | 39 | 1005.2 |
| 20260509183632 | 82 | 185 | 0.0 | 1.0 | 0.00 | 0.04 | 0.01 | 39 | 1005.3 |
| 20260509183409 | 82 | 185 | 0.0 | 1.0 | 0.00 | 0.04 | 0.01 | 39 | 1005.3 |
| 20260509182904 | 82 | 185 | 0.0 | 5.0 | 0.00 | 0.04 | 0.01 | 41 | 1005.2 |
| 20260509182404 | 81 | 185 | 0.0 | 5.0 | 0.00 | 0.04 | 0.01 | 46 | 1005.4 |
| 20260509181904 | 81 | 173 | 0.0 | 3.0 | 0.00 | 0.04 | 0.01 | 43 | 1005.4 |
| 20260509181404 | 81 | 175 | 0.0 | 3.0 | 0.00 | 0.04 | 0.01 | 47 | 1005.4 |
| 20260509180907 | 81 | 175 | 0.0 | 2.0 | 0.00 | 0.04 | 0.01 | 52 | 1005.5 |
| 20260509180403 | 80 | 175 | 0.0 | 9.0 | 0.00 | 0.04 | 0.01 | 52 | 1005.6 |
| 20260509175903 | 80 | 175 | 0.0 | 9.0 | 0.00 | 0.04 | 0.01 | 51 | 1005.7 |
| 20260509175404 | 80 | 171 | 0.0 | 4.0 | 0.00 | 0.04 | 0.01 | 48 | 1005.7 |
| 20260509174904 | 80 | 171 | 0.0 | 5.0 | 0.00 | 0.04 | 0.01 | 49 | 1005.8 |
| 20260509174625 | 80 | 171 | 0.0 | 5.0 | 0.00 | 0.04 | 0.01 | 48 | 1005.8 |
| 20260509173904 | 80 | 175 | 0.0 | 1.0 | 0.00 | 0.04 | 0.01 | 49 | 1005.9 |
| 20260509173403 | 81 | 175 | 0.0 | 1.0 | 0.00 | 0.04 | 0.01 | 49 | 1005.9 |
| 20260509172909 | 80 | 175 | 0.0 | 0.0 | 0.00 | 0.04 | 0.01 | 52 | 1005.8 |
| 20260509172404 | 80 | 175 | 0.0 | 6.0 | 0.00 | 0.04 | 0.01 | 52 | 1005.8 |
| 20260509171904 | 80 | 175 | 0.0 | 6.0 | 0.00 | 0.04 | 0.01 | 51 | 1005.9 |
| 20260509171404 | 80 | 182 | 0.0 | 2.0 | 0.00 | 0.04 | 0.01 | 51 | 1005.8 |
| 20260509170904 | 79 | 180 | 0.0 | 3.0 | 0.00 | 0.04 | 0.01 | 50 | 1005.9 |
| 20260509170409 | 80 | 180 | 0.0 | 3.0 | 0.00 | 0.04 | 0.01 | 49 | 1005.8 |
| 20260509165904 | 79 | 189 | 0.0 | 3.0 | 0.00 | 0.04 | 0.01 | 48 | 1005.9 |
| 20260509165404 | 79 | 189 | 0.0 | 2.0 | 0.00 | 0.04 | 0.01 | 51 | 1005.9 |
| 20260509164904 | 78 | 184 | 0.0 | 2.0 | 0.00 | 0.04 | 0.01 | 54 | 1005.9 |
| 20260509164404 | 78 | 184 | 0.0 | 0.0 | 0.00 | 0.04 | 0.01 | 53 | 1005.9 |
| 20260509164126 | 77 | 184 | 0.0 | 0.0 | 0.00 | 0.04 | 0.01 | 53 | 1006.0 |
| 20260509163403 | 77 | 184 | 0.0 | 1.0 | 0.00 | 0.04 | 0.01 | 55 | 1006.0 |
| 20260509162904 | 77 | 186 | 0.0 | 1.0 | 0.00 | 0.04 | 0.01 | 55 | 1005.9 |
| 20260509162404 | 77 | 207 | 0.0 | 0.0 | 0.00 | 0.04 | 0.01 | 58 | 1005.9 |
| 20260509161903 | 76 | 208 | 0.0 | 0.0 | 0.00 | 0.04 | 0.01 | 59 | 1006.0 |
| 20260509161404 | 76 | 208 | 0.0 | 0.0 | 0.00 | 0.04 | 0.01 | 58 | 1005.9 |
| 20260509160906 | 76 | 208 | 0.0 | 0.0 | 0.00 | 0.04 | 0.01 | 62 | 1005.9 |
| 20260509160405 | 75 | 208 | 0.0 | 0.0 | 0.00 | 0.04 | 0.01 | 64 | 1005.9 |
| 20260509155905 | 75 | 211 | 0.0 | 0.0 | 0.00 | 0.04 | 0.01 | 61 | 1005.9 |
| 20260509155357 | 75 | 219 | 0.0 | 0.0 | 0.00 | 0.04 | 0.01 | 59 | 1005.9 |
| 20260509154851 | 74 | 219 | 0.0 | 0.0 | 0.00 | 0.04 | 0.01 | 66 | 1005.8 |
| 20260509154346 | 74 | 219 | 0.0 | 0.0 | 0.00 | 0.04 | 0.01 | 64 | 1005.7 |
| 20260509153839 | 74 | 219 | 0.0 | 0.0 | 0.00 | 0.04 | 0.01 | 65 | 1005.6 |
| 20260509153332 | 74 | 219 | 0.0 | 0.0 | 0.00 | 0.04 | 0.01 | 64 | 1005.7 |
| 20260509152829 | 73 | 219 | 0.0 | 0.0 | 0.00 | 0.04 | 0.01 | 71 | 1005.6 |
| 20260509152321 | 73 | 219 | 0.0 | 0.0 | 0.00 | 0.04 | 0.01 | 72 | 1005.7 |
| 20260509151815 | 72 | 219 | 0.0 | 0.0 | 0.00 | 0.04 | 0.01 | 73 | 1005.7 |
| 20260509151308 | 71 | 219 | 0.0 | 0.0 | 0.00 | 0.04 | 0.01 | 74 | 1005.8 |
| 20260509150810 | 70 | 219 | 0.0 | 0.0 | 0.00 | 0.04 | 0.01 | 76 | 1005.8 |
| 20260509150308 | 69 | 219 | 0.0 | 0.0 | 0.00 | 0.04 | 0.01 | 77 | 1005.8 |
| 20260509150034 | 69 | 219 | 0.0 | 0.0 | 0.00 | 0.04 | 0.01 | 80 | 1005.8 |
| 20260509145530 | 68 | 219 | 0.0 | 0.0 | 0.00 | 0.04 | 0.01 | 79 | 1005.8 |
| 20260509144810 | 67 | 219 | 0.0 | 0.0 | 0.00 | 0.04 | 0.01 | 83 | 1005.8 |
| 20260509144310 | 66 | 219 | 0.0 | 0.0 | 0.00 | 0.04 | 0.01 | 83 | 1005.8 |
| 20260509143806 | 65 | 219 | 0.0 | 0.0 | 0.00 | 0.04 | 0.01 | 84 | 1005.8 |
| 20260509143322 | 65 | 219 | 0.0 | 0.0 | 0.00 | 0.04 | 0.01 | 87 | 1005.7 |
| 20260509142805 | 64 | 219 | 0.0 | 0.0 | 0.00 | 0.04 | 0.01 | 88 | 1005.7 |
| 20260509142307 | 63 | 219 | 0.0 | 0.0 | 0.00 | 0.04 | 0.01 | 89 | 1005.7 |
| 20260509141805 | 62 | 219 | 0.0 | 0.0 | 0.01 | 0.04 | 0.01 | 91 | 1005.7 |
| 20260509141523 | 62 | 219 | 0.0 | 0.0 | 0.01 | 0.04 | 0.01 | 93 | 1005.7 |
| 20260509140807 | 61 | 219 | 0.0 | 0.0 | 0.01 | 0.04 | 0.01 | 94 | 1005.8 |
| 20260509140311 | 61 | 219 | 0.0 | 0.0 | 0.01 | 0.04 | 0.01 | 95 | 1005.6 |
| 20260509135806 | 60 | 219 | 0.0 | 0.0 | 0.01 | 0.04 | 0.01 | 95 | 1005.7 |
| 20260509135306 | 60 | 219 | 0.0 | 0.0 | 0.01 | 0.04 | 0.01 | 94 | 1005.7 |
| 20260509135037 | 60 | 219 | 0.0 | 0.0 | 0.01 | 0.04 | 0.01 | 94 | 1005.7 |
| 20260509134304 | 59 | 219 | 0.0 | 0.0 | 0.01 | 0.04 | 0.01 | 94 | 1005.7 |
| 20260509133801 | 58 | 219 | 0.0 | 0.0 | 0.01 | 0.04 | 0.01 | 95 | 1005.6 |
| 20260509133301 | 58 | 219 | 0.0 | 0.0 | 0.01 | 0.04 | 0.01 | 94 | 1005.6 |
| 20260509132803 | 58 | 219 | 0.0 | 0.0 | 0.01 | 0.04 | 0.01 | 95 | 1005.6 |
| 20260509132305 | 57 | 219 | 0.0 | 0.0 | 0.01 | 0.04 | 0.01 | 95 | 1005.5 |
| 20260509132020 | 56 | 219 | 0.0 | 0.0 | 0.00 | 0.03 | 0.00 | 94 | 1005.5 |
| 20260509131302 | 55 | 219 | 0.0 | 0.0 | 0.00 | 0.03 | 0.00 | 95 | 1005.5 |
| 20260509130801 | 54 | 219 | 0.0 | 0.0 | 0.00 | 0.03 | 0.00 | 95 | 1005.5 |
| 20260509130301 | 54 | 219 | 0.0 | 0.0 | 0.00 | 0.03 | 0.00 | 95 | 1005.5 |
| 20260509125801 | 53 | 219 | 0.0 | 0.0 | 0.00 | 0.03 | 0.00 | 94 | 1005.4 |
| 20260509125301 | 52 | 219 | 0.0 | 0.0 | 0.00 | 0.03 | 0.00 | 94 | 1005.4 |
| 20260509124801 | 52 | 219 | 0.0 | 0.0 | 0.00 | 0.03 | 0.00 | 94 | 1005.3 |
| 20260509124301 | 51 | 219 | 0.0 | 0.0 | 0.00 | 0.03 | 0.00 | 95 | 1005.3 |
| 20260509124020 | 51 | 219 | 0.0 | 0.0 | 0.00 | 0.03 | 0.00 | 95 | 1005.3 |
| 20260509123302 | 50 | 219 | 0.0 | 0.0 | 0.00 | 0.03 | 0.00 | 95 | 1005.2 |
| 20260509122801 | 50 | 219 | 0.0 | 0.0 | 0.00 | 0.03 | 0.00 | 95 | 1005.1 |
| 20260509122310 | 50 | 219 | 0.0 | 0.0 | 0.00 | 0.03 | 0.00 | 95 | 1005.1 |
| 20260509121806 | 50 | 219 | 0.0 | 0.0 | 0.00 | 0.03 | 0.00 | 95 | 1005.1 |
| 20260509121300 | 49 | 219 | 0.0 | 0.0 | 0.00 | 0.03 | 0.00 | 95 | 1005.0 |
| 20260509120954 | 49 | 219 | 0.0 | 0.0 | 0.00 | 0.03 | 0.00 | 95 | 1004.9 |
| 20260509120949 | 49 | 219 | 0.0 | 0.0 | 0.00 | 0.03 | 0.00 | 95 | 1004.9 |
| 20260509115743 | 49 | 219 | 0.0 | 0.0 | 0.00 | 0.03 | 0.00 | 95 | 1005.0 |
| 20260509115244 | 49 | 219 | 0.0 | 0.0 | 0.00 | 0.03 | 0.00 | 95 | 1004.9 |
| 20260509114741 | 48 | 219 | 0.0 | 0.0 | 0.00 | 0.03 | 0.00 | 95 | 1004.9 |
| 20260509114240 | 48 | 219 | 0.0 | 0.0 | 0.00 | 0.03 | 0.00 | 95 | 1004.8 |
| 20260509114221 | 48 | 219 | 0.0 | 0.0 | 0.00 | 0.03 | 0.00 | 95 | 1004.9 |
| 20260509113236 | 48 | 219 | 0.0 | 0.0 | 0.00 | 0.03 | 0.00 | 95 | 1004.9 |
| 20260509112735 | 48 | 219 | 0.0 | 0.0 | 0.00 | 0.03 | 0.00 | 95 | 1004.7 |
| 20260509112232 | 49 | 219 | 0.0 | 0.0 | 0.00 | 0.03 | 0.00 | 95 | 1004.7 |
| 20260509111957 | 49 | 219 | 0.0 | 0.0 | 0.00 | 0.03 | 0.00 | 95 | 1004.8 |
| 20260509111231 | 49 | 219 | 0.0 | 0.0 | 0.00 | 0.03 | 0.00 | 95 | 1004.8 |
| 20260509110958 | 49 | 219 | 0.0 | 0.0 | 0.00 | 0.03 | 0.00 | 95 | 1004.8 |
| 20260509110232 | 49 | 219 | 0.0 | 0.0 | 0.00 | 0.03 | 0.00 | 95 | 1004.7 |
| 20260509105732 | 49 | 219 | 0.0 | 0.0 | 0.00 | 0.03 | 0.00 | 95 | 1004.7 |
| 20260509105232 | 49 | 219 | 0.0 | 0.0 | 0.00 | 0.03 | 0.00 | 95 | 1004.7 |
| 20260509104732 | 49 | 219 | 0.0 | 0.0 | 0.00 | 0.03 | 0.00 | 95 | 1004.6 |
| 20260509104232 | 49 | 219 | 0.0 | 0.0 | 0.00 | 0.03 | 0.00 | 95 | 1004.6 |
| 20260509103730 | 49 | 219 | 0.0 | 0.0 | 0.00 | 0.03 | 0.00 | 95 | 1004.6 |
| 20260509103231 | 49 | 219 | 0.0 | 0.0 | 0.00 | 0.03 | 0.00 | 95 | 1004.6 |
| 20260509102724 | 49 | 219 | 0.0 | 0.0 | 0.00 | 0.03 | 0.00 | 95 | 1004.7 |
| 20260509102222 | 49 | 219 | 0.0 | 0.0 | 0.00 | 0.03 | 0.00 | 95 | 1004.7 |
| 20260509101722 | 49 | 219 | 0.0 | 0.0 | 0.00 | 0.03 | 0.00 | 95 | 1004.8 |
| 20260509101446 | 49 | 219 | 0.0 | 0.0 | 0.00 | 0.03 | 0.00 | 95 | 1004.8 |
| 20260509100721 | 49 | 219 | 0.0 | 0.0 | 0.00 | 0.03 | 0.00 | 95 | 1004.8 |
| 20260509100708 | 50 | 219 | 0.0 | 0.0 | 0.00 | 0.03 | 0.00 | 95 | 1004.8 |
| 20260509095717 | 50 | 219 | 0.0 | 0.0 | 0.00 | 0.03 | 0.00 | 94 | 1004.9 |
| 20260509095216 | 50 | 219 | 0.0 | 0.0 | 0.00 | 0.03 | 0.00 | 95 | 1004.9 |
| 20260509094717 | 50 | 219 | 0.0 | 0.0 | 0.00 | 0.03 | 0.00 | 95 | 1004.9 |
| 20260509094217 | 50 | 219 | 0.0 | 0.0 | 0.00 | 0.03 | 0.00 | 94 | 1005.0 |
| 20260509093717 | 50 | 219 | 0.0 | 0.0 | 0.00 | 0.03 | 0.00 | 94 | 1005.0 |
| 20260509093215 | 51 | 219 | 0.0 | 0.0 | 0.00 | 0.03 | 0.00 | 95 | 1005.0 |
| 20260509092714 | 51 | 219 | 0.0 | 0.0 | 0.00 | 0.03 | 0.00 | 95 | 1005.0 |
| 20260509092215 | 51 | 219 | 0.0 | 0.0 | 0.00 | 0.03 | 0.00 | 95 | 1005.1 |
| 20260509091924 | 51 | 219 | 0.0 | 0.0 | 0.00 | 0.03 | 0.00 | 95 | 1005.1 |
| 20260509091917 | 51 | 219 | 0.0 | 0.0 | 0.00 | 0.03 | 0.00 | 95 | 1005.1 |